EDDW

Bremen Airport

Bremen, Germany
METAR EDDW 212250Z AUTO 07003KT 9999 // NCD 09/05 Q1020
Observed Flight Rules
Apr-21 @ 22:50 UTC (14 minutes ago) Visual Flight Rules
Wind Visibility Clouds
70° at 3 knots 10,000+ meters
  • Clear skies
Temperatures Readings
Current 9°C / 48°F
Dewpoint 5°C / 41°F
Humidity 76%
Altimeter 30.12" Hg
Pressure 1020 hPa
Elevation 5
METAR EDDW 212250Z AUTO 07003KT 9999 // NCD 09/05 Q1020
Observed Flight Rules
Apr-21 @ 22:50 UTC
(14 minutes ago)
VFR
Wind Visibility
70° at 3 knots 10,000+ meters
Clouds
  • Clear skies
Temperature Dewpoint
9°C / 48°F 5°C / 41°F
Humidity Altimeter Pressure
76% 30.12" Hg 1020 hPa